AIGUAFREDA (Vallès Oriental)





Hora UTC 20:40
Temperatura 25.0 ºC
Suelo 15 cm 23.6 ºC
Humedad 65.3 %
Presión 1016.1 hPa
Pluja 0.0 mm
Velocidad viento 0.6 km/h
Dirección viento SW
Radiación solar 0.0 W/m²

Datos diarios 2024-07-24



Hora UTC (invierno +1h; verano +2h)
Temperatura (ºC) Humedad (%) Presión (hPa) Velocidad viento (km/h) Precipitación (mm) Radiación solar (W/m²)
Hora UTC Aire Suelo 15 cm Humedad Presión Vel. Dir. Vel. Max Dir. Intent. máx 5 min. Rad. Sol.
00:05 21.0 19.6 82.7 1019.8 0.0 NNE 0.0 NNE 0.0 0.0
00:10 20.9 19.5 82.8 1019.8 0.0 NNE 0.0 NNE 0.0 0.0
00:15 20.9 19.5 82.9 1019.8 0.0 NNE 0.0 NNE 0.0 0.0
00:20 20.9 19.4 82.8 1019.8 0.0 NNE 0.0 NNE 0.0 0.0
00:25 20.8 19.4 83.0 1019.8 0.0 NNE 0.0 NNE 0.0 0.0
00:30 20.7 19.3 83.2 1019.7 0.0 NNE 0.0 NNE 0.0 0.0
00:35 20.7 19.3 83.4 1019.7 0.0 NNE 0.0 NNE 0.0 0.0
00:40 20.6 19.2 83.6 1019.7 0.0 NNE 0.0 NNE 0.0 0.0
00:45 20.6 19.2 83.7 1019.6 0.1 NNW 3.4 NNW 0.0 0.0
00:50 20.6 19.2 83.7 1019.7 0.0 NNE 0.0 NNW 0.0 0.0
00:55 20.5 19.1 83.7 1019.6 0.2 NW 3.4 WNW 0.0 0.0
01:00 20.5 19.2 83.6 1019.6 0.7 NNW 6.1 NNW 0.0 0.0
01:05 20.5 19.2 83.4 1019.6 0.0 NNE 0.0 N 0.0 0.0
01:10 20.4 19.1 83.5 1019.6 0.0 NNE 0.0 W 0.0 0.0
01:15 20.3 19.0 84.1 1019.6 0.0 NNE 0.0 W 0.0 0.0
01:20 20.2 18.9 84.5 1019.6 0.0 NNE 0.0 W 0.0 0.0
01:25 20.2 18.9 84.6 1019.6 0.0 NNE 0.0 NNE 0.0 0.0
01:30 20.1 18.8 84.9 1019.5 0.0 NNE 0.0 NNE 0.0 0.0
01:35 20.1 18.8 85.2 1019.6 0.0 NNE 0.0 NNW 0.0 0.0
01:40 20.0 18.8 85.3 1019.6 0.0 WSW 3.4 WSW 0.0 0.0
01:45 20.0 18.7 85.2 1019.6 0.0 NNE 0.0 WSW 0.0 0.0
01:50 20.0 18.7 85.2 1019.7 0.5 NE 3.4 ENE 0.0 0.0
01:55 20.0 18.7 85.3 1019.7 0.5 NE 6.1 NE 0.0 0.0
02:00 19.9 18.6 85.3 1019.6 0.0 NNE 0.0 NNE 0.0 0.0
02:05 19.9 18.6 85.1 1019.5 0.0 NNE 0.0 NNE 0.0 0.0
02:10 19.8 18.5 85.1 1019.4 0.0 NNE 0.0 NNE 0.0 0.0
02:15 19.8 18.5 85.4 1019.4 0.0 NNE 0.0 NNE 0.0 0.0
02:20 19.7 18.5 85.7 1019.3 0.0 NNE 0.0 ESE 0.0 0.0
02:25 19.6 18.5 86.1 1019.4 0.0 NNE 0.0 NNE 0.0 0.0
02:30 19.6 18.4 86.2 1019.3 0.0 NNE 0.0 NNE 0.0 0.0
02:35 19.6 18.3 86.2 1019.3 0.0 NNE 0.0 W 0.0 0.0
02:40 19.5 18.3 86.3 1019.3 0.0 NNE 0.0 W 0.0 0.0
02:45 19.4 18.2 86.5 1019.2 0.0 NNE 0.0 W 0.0 0.0
02:50 19.4 18.2 86.6 1019.1 0.0 NNE 0.0 W 0.0 0.0
02:55 19.3 18.1 87.0 1019.1 0.0 NNE 0.0 W 0.0 0.0
03:00 19.2 18.0 87.3 1019.1 0.0 NNE 0.0 W 0.0 0.0
03:05 19.2 18.0 87.4 1019.0 0.0 NNE 0.0 W 0.0 0.0
03:10 19.1 17.9 87.4 1019.0 0.0 NNE 0.0 W 0.0 0.0
03:15 19.1 17.9 87.5 1019.0 0.0 NNE 0.0 NNE 0.0 0.0
03:20 19.0 17.8 87.8 1018.9 0.0 NNE 0.0 NNE 0.0 0.0
03:25 18.9 17.8 88.0 1019.0 0.0 NNE 0.0 NNE 0.0 0.0
03:30 18.8 17.7 88.1 1018.9 0.0 NNE 0.0 NNE 0.0 0.0
03:35 18.8 17.7 88.3 1019.0 0.0 NNE 0.0 NNE 0.0 0.0
03:40 18.7 17.6 88.6 1018.9 0.0 NNE 0.0 NNE 0.0 0.0
03:45 18.7 17.6 88.7 1018.9 0.0 NNE 0.0 NNW 0.0 0.0
03:50 18.7 17.5 88.8 1019.1 0.0 NNE 0.0 NNW 0.0 0.0
03:55 18.6 17.5 88.8 1019.1 0.0 NNE 0.0 NNW 0.0 0.0
04:00 18.6 17.4 88.9 1019.1 0.0 NNE 0.0 NNW 0.0 0.0
04:05 18.5 17.4 89.0 1019.0 0.0 NNE 0.0 NNW 0.0 0.0
04:10 18.4 17.4 89.0 1019.1 0.0 NNE 0.0 NNW 0.0 0.0
04:15 18.4 17.3 89.1 1019.1 0.0 NNE 0.0 NNW 0.0 0.0
04:20 18.3 17.3 89.2 1019.2 0.0 NNE 0.0 NE 0.0 0.0
04:25 18.3 17.3 89.4 1019.3 0.0 NNE 0.0 NE 0.0 0.0
04:30 18.3 17.3 89.3 1019.3 0.0 NNE 0.0 NE 0.0 0.0
04:35 18.2 17.3 89.3 1019.2 0.0 NNE 0.0 NE 0.0 0.0
04:40 18.2 17.2 89.4 1019.3 0.0 NNE 0.0 NE 0.0 0.0
04:45 18.2 17.3 89.6 1019.2 0.0 NNE 0.0 NE 0.0 0.0
04:50 18.2 17.3 89.7 1019.4 0.0 NNE 0.0 W 0.0 0.0
04:55 18.2 17.4 89.5 1019.3 0.0 NNE 0.0 NNE 0.0 0.0
05:00 18.2 17.4 89.4 1019.3 0.0 NNE 0.0 NNW 0.0 0.0
05:05 18.2 17.4 89.4 1019.3 0.0 NNE 0.0 NNW 0.0 0.0
05:10 18.2 17.4 89.3 1019.2 0.0 NNE 0.0 NNW 0.0 0.0
05:15 18.2 17.5 89.2 1019.2 0.0 NNE 0.0 NW 0.0 0.0
05:20 18.2 17.5 89.1 1019.3 0.0 NNE 0.0 NW 0.0 0.0
05:25 18.2 17.6 89.1 1019.2 0.0 NNE 0.0 NW 0.0 0.0
05:30 18.3 17.6 88.9 1019.2 0.0 NNE 0.0 NW 0.0 0.0
05:35 18.3 17.7 88.6 1019.2 0.0 NNE 0.0 WSW 0.0 0.0
05:40 18.3 17.7 88.4 1019.2 0.0 NNE 0.0 NW 0.0 0.0
05:45 18.3 17.8 88.4 1019.2 0.0 NNE 0.0 NW 0.0 0.0
05:50 18.4 17.9 88.6 1019.2 0.0 NNE 0.0 NW 0.0 0.0
05:55 18.5 18.0 88.3 1019.3 0.0 NNE 0.0 NW 0.0 0.0
06:00 18.6 18.0 88.1 1019.1 0.0 NNE 0.0 NW 0.0 0.0
06:05 18.7 18.2 87.7 1019.2 0.0 NNE 0.0 NW 0.0 0.0
06:10 18.9 18.3 87.3 1019.2 0.0 NNE 0.0 NW 0.0 0.0
06:15 19.0 18.4 87.1 1019.2 0.0 NNE 0.0 NW 0.0 0.0
06:20 19.2 18.5 86.5 1019.0 0.0 NNE 0.0 NW 0.0 0.0
06:25 19.4 18.7 85.5 1019.1 0.0 NNE 0.0 NW 0.0 0.0
06:30 19.6 18.8 84.6 1019.1 0.0 NNE 0.0 NW 0.0 0.0
06:35 19.9 19.0 83.6 1019.1 0.0 NNE 0.0 SE 0.0 0.0
06:40 20.4 19.1 82.2 1019.1 0.0 NNE 0.0 SE 0.0 0.0
06:45 20.9 19.3 80.0 1019.1 0.0 NNE 0.0 SE 0.0 21.3
06:50 21.7 19.6 77.6 1019.0 0.0 NNE 0.0 SE 0.0 58.8
06:55 22.5 20.0 74.1 1019.0 0.0 NNE 0.0 SE 0.0 215.0
07:00 22.9 20.8 72.8 1019.0 0.0 NNE 0.0 SE 0.0 310.4
07:05 23.4 22.2 70.9 1018.9 0.0 NNE 0.0 SE 0.0 312.3
07:10 23.9 23.6 69.0 1018.9 0.0 NNE 0.0 SE 0.0 343.9
07:15 24.4 24.7 67.3 1018.9 0.0 NNE 0.0 SSE 0.0 358.3
07:20 25.2 25.6 64.8 1019.0 0.0 NNE 0.0 SE 0.0 368.6
07:25 25.7 26.1 62.2 1018.8 0.0 NNE 0.0 SSE 0.0 369.9
07:30 26.3 26.7 60.8 1018.9 0.0 NNE 0.0 SW 0.0 366.2
07:35 27.1 27.7 57.9 1018.7 0.0 NNE 0.0 SE 0.0 308.9
07:40 27.7 29.1 54.0 1018.8 0.4 SW 6.1 WNW 0.0 314.9
07:45 28.0 30.4 52.8 1018.8 3.3 S 8.8 SSE 0.0 354.9
07:50 28.3 31.3 50.5 1018.8 5.1 SSE 14.2 SE 0.0 351.1
07:55 28.3 31.5 49.2 1018.6 7.1 SE 14.2 SSE 0.0 405.1
08:00 28.1 31.8 49.1 1018.6 7.3 SE 14.2 SSE 0.0 405.0
08:05 28.3 32.7 48.0 1018.5 8.3 SE 16.9 SE 0.0 405.3
08:10 28.4 32.4 47.3 1018.6 9.5 SE 16.9 ESE 0.0 407.4
08:15 28.6 32.6 46.6 1018.6 9.6 SE 16.9 SE 0.0 429.0
08:20 29.1 33.6 45.0 1018.6 8.8 SE 14.2 ESE 0.0 450.7
08:25 29.1 33.5 44.2 1018.6 9.0 SSE 14.2 SSE 0.0 465.1
08:30 29.4 34.1 43.4 1018.6 7.4 SE 16.9 ESE 0.0 439.4
08:35 29.5 34.1 41.3 1018.6 8.6 SE 14.2 S 0.0 429.2
08:40 29.6 34.5 41.2 1018.5 6.7 SE 14.2 SE 0.0 434.3
08:45 30.1 35.2 39.7 1018.5 8.3 SE 16.9 SE 0.0 392.1
08:50 30.4 35.6 38.6 1018.4 7.2 SE 14.2 SE 0.0 430.9
08:55 30.5 36.3 38.4 1018.3 6.4 SSE 11.5 SSW 0.0 381.1
09:00 30.5 36.0 38.1 1018.2 7.3 SE 19.6 S 0.0 426.2
09:05 30.5 36.0 38.3 1018.3 10.1 SE 19.6 ESE 0.0 477.9
09:10 30.5 35.8 38.2 1018.3 7.9 SE 14.2 SSE 0.0 480.7
09:15 30.7 36.3 37.9 1018.2 6.3 SE 14.2 SSE 0.0 450.7
09:20 30.8 36.5 37.3 1018.2 9.1 SSE 19.6 SE 0.0 531.7
09:25 30.9 36.6 37.4 1018.2 6.8 SSE 14.2 S 0.0 475.7
09:30 31.2 37.2 36.6 1018.1 6.9 SSE 16.9 S 0.0 526.5
09:35 31.5 37.5 36.1 1018.0 10.7 SE 25.0 SE 0.0 613.6
09:40 30.9 36.2 36.5 1018.0 10.2 SE 19.6 SE 0.0 538.7
09:45 31.3 36.8 36.7 1018.2 11.1 SE 25.0 SE 0.0 502.9
09:50 31.3 37.2 36.6 1017.9 7.8 SSE 19.6 SSE 0.0 509.6
09:55 31.6 37.6 36.1 1018.0 8.9 SE 25.0 SE 0.0 573.8
10:00 31.6 37.3 35.8 1018.1 10.4 SSE 25.0 SSE 0.0 729.3
10:05 31.2 36.8 36.2 1017.9 11.6 SE 19.6 SSE 0.0 793.4
10:10 31.4 37.2 36.5 1017.9 7.6 SE 16.9 SE 0.0 803.0
10:15 31.5 37.2 35.8 1017.8 11.4 SSE 22.3 SSE 0.0 810.0
10:20 31.4 37.5 36.1 1017.9 9.7 SSE 19.6 SSE 0.0 818.0
10:25 31.5 37.5 36.2 1017.8 10.2 SSE 16.9 SSE 0.0 825.0
10:30 31.8 37.9 35.6 1017.7 9.7 SSE 25.0 ESE 0.0 831.0
10:35 31.9 37.3 35.2 1017.6 13.2 SSE 22.3 SE 0.0 839.0
10:40 31.5 36.8 35.7 1017.7 14.3 SSE 22.3 SSE 0.0 849.0
10:45 31.8 37.1 35.4 1017.6 9.6 SE 19.6 ESE 0.0 852.0
10:50 32.3 38.1 34.7 1017.7 9.4 S 19.6 SSE 0.0 858.0
10:55 32.7 38.5 34.3 1017.5 10.7 SSE 25.0 SW 0.0 861.0
11:00 32.7 39.0 34.4 1017.4 9.7 SSE 19.6 SSE 0.0 866.0
11:05 32.9 39.7 33.9 1017.3 7.4 SW 16.9 S 0.0 868.0
11:10 33.1 39.6 34.2 1017.4 11.0 S 22.3 SSW 0.0 870.0
11:15 33.0 39.3 35.1 1017.4 9.8 SSE 22.3 SSW 0.0 873.0
11:20 32.6 38.4 36.0 1017.4 12.2 SE 25.0 SE 0.0 878.0
11:25 32.6 38.5 36.6 1017.4 9.8 SSE 22.3 S 0.0 882.0
11:30 32.7 38.8 37.0 1017.4 10.0 SSE 19.6 SSE 0.0 884.0
11:35 32.8 38.6 37.3 1017.2 10.6 SE 22.3 SE 0.0 884.0
11:40 32.7 38.8 37.6 1017.1 10.5 SE 22.3 SSE 0.0 886.0
11:45 32.6 38.4 39.0 1017.3 11.0 SSE 22.3 SE 0.0 882.0
11:50 32.0 38.1 40.1 1017.1 12.8 SSE 22.3 SE 0.0 880.0
11:55 32.5 38.4 40.1 1017.2 11.2 SE 22.3 SE 0.0 888.0
12:00 32.2 38.2 40.5 1017.0 11.1 SE 27.7 SE 0.0 892.0
12:05 32.4 38.2 40.4 1017.0 14.3 SSE 25.0 SE 0.0 895.0
12:10 32.4 37.9 40.7 1017.0 13.0 SE 27.7 SSE 0.0 886.0
12:15 32.3 38.1 40.8 1016.9 11.6 SSE 22.3 SE 0.0 880.0
12:20 32.1 37.3 41.1 1016.9 17.1 SE 27.7 S 0.0 874.0
12:25 32.0 37.4 41.5 1017.0 13.6 SE 27.7 SE 0.0 870.0
12:30 32.2 37.8 41.3 1016.8 10.2 SE 22.3 SSE 0.0 875.0
12:35 32.3 37.7 41.0 1016.8 12.8 SSE 27.7 S 0.0 872.0
12:40 32.2 37.2 40.9 1016.8 14.5 SSE 25.0 SSE 0.0 868.0
12:45 32.1 37.4 41.0 1016.7 12.3 SE 25.0 ESE 0.0 870.0
12:50 32.2 37.4 40.0 1016.8 16.0 SE 30.4 SE 0.0 869.0
12:55 32.3 37.6 39.5 1016.6 12.1 SE 25.0 SE 0.0 870.0
13:00 32.1 37.3 38.9 1016.7 12.3 SE 22.3 SE 0.0 866.0
13:05 32.4 37.6 37.9 1016.6 13.2 SSE 22.3 SSE 0.0 861.0
13:10 32.4 37.5 37.1 1016.5 11.6 SSE 22.3 SE 0.0 858.0
13:15 32.5 37.5 35.9 1016.4 13.4 SSE 22.3 S 0.0 853.0
13:20 32.2 37.4 36.3 1016.8 13.0 SSE 27.7 SE 0.0 850.0
13:25 32.3 37.6 36.9 1016.3 12.6 SSE 25.0 SSE 0.0 844.0
13:30 32.1 37.5 38.4 1016.5 13.9 SSE 30.4 SE 0.0 837.0
13:35 32.3 37.3 38.7 1016.5 12.5 SSE 22.3 SE 0.0 827.0
13:40 32.3 37.4 39.5 1016.5 14.7 SSE 27.7 SE 0.0 818.0
13:45 32.3 37.4 40.3 1016.2 11.8 S 25.0 SSE 0.0 810.0
13:50 32.3 37.5 40.4 1016.4 13.7 SSE 25.0 SSE 0.0 801.0
13:55 32.3 37.7 41.6 1016.3 12.7 SSE 25.0 S 0.0 794.4
14:00 32.0 37.3 42.9 1016.1 13.8 SSE 25.0 SSE 0.0 786.7
14:05 32.0 37.3 43.8 1016.3 12.2 SE 22.3 SE 0.0 776.9
14:10 31.8 36.8 45.2 1016.3 13.0 SSE 22.3 SE 0.0 767.1
14:15 32.0 37.4 45.5 1016.1 9.7 SSE 22.3 ESE 0.0 757.5
14:20 32.3 37.4 45.4 1016.1 12.1 SSE 22.3 S 0.0 747.7
14:25 32.2 37.2 46.1 1015.9 13.5 SSE 27.7 SSE 0.0 738.0
14:30 31.5 36.4 47.0 1016.0 13.9 SE 30.4 SE 0.0 674.0
14:35 31.6 36.4 46.7 1015.9 15.2 SE 27.7 SSE 0.0 719.4
14:40 31.3 35.8 47.1 1016.1 12.8 SSE 22.3 ESE 0.0 707.1
14:45 31.4 36.0 46.4 1016.0 14.8 SE 27.7 SSE 0.0 696.5
14:50 31.3 35.9 46.3 1016.1 13.6 SSE 27.7 S 0.0 685.7
14:55 31.2 35.7 46.1 1016.0 13.4 SSE 25.0 SSE 0.0 674.8
15:00 31.4 36.1 45.5 1016.0 10.4 SSE 22.3 SE 0.0 666.9
15:05 31.2 35.8 45.8 1015.8 11.4 S 27.7 SSE 0.0 657.8
15:10 31.0 35.7 45.4 1016.0 14.0 SSE 27.7 SSW 0.0 644.7
15:15 30.7 35.2 45.4 1015.9 14.2 SSE 25.0 SSE 0.0 632.1
15:20 30.7 35.0 44.8 1016.0 13.4 SSE 27.7 SE 0.0 621.8
15:25 30.6 35.1 45.7 1015.8 13.3 SSE 25.0 SE 0.0 609.9
15:30 30.4 34.6 46.2 1015.9 14.2 SSE 25.0 SSE 0.0 597.5
15:35 30.6 34.6 45.1 1015.9 12.1 SSE 22.3 SSE 0.0 585.0
15:40 30.7 34.8 44.8 1015.8 11.7 SSE 22.3 SE 0.0 569.7
15:45 30.7 34.9 44.7 1015.7 11.7 SSE 19.6 SSE 0.0 555.0
15:50 30.6 34.9 45.1 1015.7 9.8 SSE 22.3 S 0.0 539.8
15:55 30.7 35.1 44.3 1015.7 10.3 SSE 19.6 SE 0.0 526.6
16:00 31.3 35.6 42.9 1015.5 10.2 S 22.3 SSE 0.0 512.5
16:05 31.2 35.5 43.1 1015.7 9.2 S 19.6 SW 0.0 498.2
16:10 31.2 35.5 42.9 1015.6 8.7 S 19.6 S 0.0 483.0
16:15 30.7 35.2 43.4 1015.6 10.1 SSE 19.6 SSE 0.0 467.3
16:20 30.8 34.8 43.5 1015.5 10.4 SSE 19.6 SSE 0.0 452.4
16:25 30.5 34.6 44.2 1015.4 11.3 SSE 19.6 SSE 0.0 440.8
16:30 30.4 34.2 44.5 1015.3 12.7 SSE 19.6 SSE 0.0 425.4
16:35 30.1 33.7 45.8 1015.4 11.5 SSE 19.6 SE 0.0 407.8
16:40 30.0 33.1 46.1 1015.5 12.1 SSE 22.3 SE 0.0 309.4
16:45 29.7 32.5 46.7 1015.3 10.9 SSE 19.6 SSE 0.0 367.7
16:50 29.9 32.6 46.8 1015.3 11.6 SSE 22.3 SE 0.0 345.5
16:55 29.8 32.4 47.1 1015.4 10.7 SSE 22.3 S 0.0 355.6
17:00 29.7 32.1 47.6 1015.3 11.0 SSE 22.3 SSE 0.0 314.0
17:05 29.7 32.2 48.6 1015.4 10.4 SSE 19.6 SSE 0.0 326.3
17:10 29.7 32.2 47.7 1015.4 11.3 S 19.6 SE 0.0 308.8
17:15 29.4 31.6 49.0 1015.5 10.6 SSE 22.3 SSE 0.0 292.2
17:20 29.4 31.4 49.0 1015.4 9.9 SSE 19.6 SE 0.0 273.8
17:25 29.4 30.7 49.1 1015.3 9.4 SSE 16.9 SSE 0.0 255.4
17:30 29.4 30.1 49.5 1015.5 8.9 S 16.9 SE 0.0 239.1
17:35 29.5 29.7 48.9 1015.5 8.5 S 16.9 SSE 0.0 222.4
17:40 29.2 29.2 50.1 1015.5 10.0 SSE 19.6 S 0.0 199.7
17:45 28.8 28.8 50.8 1015.5 10.0 SSE 19.6 SE 0.0 68.6
17:50 28.7 28.6 51.1 1015.5 9.2 SSE 16.9 SE 0.0 52.3
17:55 28.6 28.3 51.2 1015.5 10.1 SSE 19.6 SSE 0.0 47.4
18:00 28.4 28.1 51.5 1015.6 9.7 S 16.9 S 0.0 40.3
18:05 28.2 27.9 52.0 1015.5 8.9 SSE 16.9 SSE 0.0 0.8
18:10 28.2 27.8 52.4 1015.5 5.8 S 14.2 SW 0.0 0.7
18:15 28.2 27.6 52.3 1015.5 6.1 S 11.5 SSE 0.0 0.0
18:20 28.1 27.5 52.8 1015.6 5.3 SSW 11.5 SW 0.0 0.0
18:25 27.9 27.3 53.3 1015.6 7.4 SSW 14.2 SW 0.0 0.0
18:30 27.8 27.1 54.0 1015.7 6.5 S 14.2 SE 0.0 0.0
18:35 27.7 27.0 54.3 1015.7 5.3 SSW 11.5 SSW 0.0 0.0
18:40 27.6 26.8 54.5 1015.8 6.8 SSE 11.5 SSE 0.0 0.0
18:45 27.5 26.7 55.0 1015.8 7.2 SE 14.2 SE 0.0 0.0
18:50 27.2 26.5 55.9 1015.8 7.6 SE 14.2 ESE 0.0 0.0
18:55 27.0 26.3 56.6 1015.8 9.0 SSE 16.9 SSE 0.0 0.0
19:00 26.8 26.2 57.3 1015.9 9.4 SSE 16.9 SSE 0.0 0.0
19:05 26.7 26.0 58.1 1015.8 8.3 SSE 14.2 SE 0.0 0.0
19:10 26.5 25.8 58.7 1015.9 7.0 SSE 14.2 SE 0.0 0.0
19:15 26.4 25.6 59.1 1015.9 5.0 SSE 8.8 SSE 0.0 0.0
19:20 26.3 25.4 59.5 1015.9 5.7 SSE 11.5 SSE 0.0 0.0
19:25 26.2 25.3 60.0 1016.0 3.9 SSE 8.8 SE 0.0 0.0
19:30 26.1 25.1 60.4 1015.9 5.0 SE 8.8 S 0.0 0.0
19:35 26.0 24.9 60.8 1016.0 2.2 SE 8.8 SSE 0.0 0.0
19:40 26.0 24.8 61.0 1015.9 2.6 SE 8.8 S 0.0 0.0
19:45 25.9 24.7 61.3 1016.0 3.8 SSE 8.8 SSE 0.0 0.0
19:50 25.9 24.5 61.5 1015.9 3.6 SSE 6.1 SSE 0.0 0.0
19:55 25.8 24.5 61.8 1016.0 3.8 SSE 8.8 SE 0.0 0.0
20:00 25.7 24.3 62.1 1016.1 2.2 SSE 6.1 S 0.0 0.0
20:05 25.6 24.2 62.9 1015.9 2.7 SSE 6.1 SSE 0.0 0.0
20:10 25.4 24.1 62.8 1016.1 2.2 SW 8.8 SW 0.0 0.0
20:15 25.3 24.0 63.5 1016.0 2.9 SW 6.1 SW 0.0 0.0
20:20 25.3 23.9 63.8 1016.1 3.1 SW 8.8 WSW 0.0 0.0
20:25 25.2 23.9 64.1 1016.2 2.3 WSW 8.8 WSW 0.0 0.0
20:30 25.1 23.7 64.4 1016.2 3.1 SW 6.1 WSW 0.0 0.0
20:35 25.0 23.7 65.0 1016.2 3.4 SSW 6.1 SSW 0.0 0.0
20:40 25.0 23.6 65.3 1016.1 0.6 SW 3.4 SW 0.0 0.0
Máxima 33.2 39.7 89.7 1019.8 17.1 SE 30.4 SE 0.0 895.0
Mínima 18.2 17.2 33.9 1015.3
Total 0.0